Hauptseite
METAR-TAF:

METAR-TAF

Flughäfen :

Militärflugplatz Mont-de-Marsan

Mont-De-Marsan, Frankreich

Breite: 43-55N, Länge: 000-30W, Höhe: 62 m

Beobachtung

Neuester Wetterbericht von vor 25 Minuten, um 07:00 UTC
Windstille
Temperatur 3°C
Luftfeuchtigkeit 93%
Luftdruck 1029 hPa
Sichtweite 10 km oder mehr
keine Wolken unter 1500 m und keine Kumulonimbus oder Gewitterwolken

METAR: LFBM 120700Z AUTO 00000KT CAVOK 03/02 Q1029 NOSIG

Zeit: 09:25 (07:25 UTC)

Prognose

Neuester Wetterbericht von vor 2 Stunden und 34 Minuten, um 04:51 UTC
Gültige Prognose vom 12 um 04 UTC bis 13 um 03 UTC
Wind 2 kt aus unterschiedlichen Richtungen
Sichtweite 10 km oder mehr
Leicht bewölkt in der Höhe von 3000 ft

TAF: LFBM 120451Z 1204/1303 VRB02KT 9999 FEW030

Wetterbeobachtungen und Prognosen von mehr als 4000 Flughäfen (METAR und TAF Bericht).

Die verfügbaren Stationen werden durch gelbe und rote Markierungen auf der Karte dargestellt.

Führen Sie die Maus auf sie, um den Namen der Station zu sehen.

Darauf klicken, um die Beobachtung von Wetterbeobachtungen und Prognosen zu sehen.

Um die Karte zu ändern : klicken Sie auf den grünen Tasten mit einem schwarzen Kreuz Zum Vergrößern, auf den grünen Button mit einem Gedankenstrich zu verkleinern, oder auf die grünen Pfeile für benachbarte Karten.


METAR-TAF: